Time;durP1;ratioP1;P1;durP2;ratioP2;P2;SDS_P1;SDS_P2;PMS_P1;PMS_P2;Temp;Humidity;BMP_temperature;BMP_pressure;BME280_temperature;BME280_humidity;BME280_pressure;Samples;Min_cycle;Max_cycle;Signal;HPM_P1;HPM_P2
2021/09/12 00:01:04;;;;;;;9.25;6.20;;;17.90;99.90;;;;;;5092628;28;20093;-90
2021/09/12 00:03:33;;;;;;;11.75;6.68;;;17.90;99.90;;;;;;5091935;28;20086;-89
2021/09/12 00:05:59;;;;;;;10.73;6.50;;;17.90;99.90;;;;;;5091766;28;20043;-90
2021/09/12 00:08:25;;;;;;;10.60;7.20;;;17.90;99.90;;;;;;5093139;28;20016;-89
2021/09/12 00:10:51;;;;;;;9.23;6.45;;;17.90;99.90;;;;;;5092831;28;20107;-89
2021/09/12 00:13:17;;;;;;;10.48;6.13;;;17.90;99.90;;;;;;5093145;28;20020;-89
2021/09/12 00:15:43;;;;;;;13.98;7.70;;;17.90;99.90;;;;;;5093395;28;20024;-90
2021/09/12 00:18:09;;;;;;;12.32;7.45;;;17.90;99.90;;;;;;5094612;28;20392;-90
2021/09/12 00:20:35;;;;;;;9.75;7.82;;;17.90;99.90;;;;;;5076296;28;20028;-90
2021/09/12 00:23:02;;;;;;;12.75;7.45;;;17.90;99.90;;;;;;5092853;28;20415;-89
2021/09/12 00:25:28;;;;;;;13.20;8.90;;;17.90;99.90;;;;;;5092358;28;20055;-89
2021/09/12 00:27:54;;;;;;;12.48;7.53;;;17.90;99.90;;;;;;5092730;28;20464;-89
2021/09/12 00:30:20;;;;;;;11.02;7.25;;;17.90;99.90;;;;;;5093134;28;20024;-90
2021/09/12 00:32:46;;;;;;;11.57;6.88;;;17.90;99.90;;;;;;5092222;28;20027;-89
2021/09/12 00:35:13;;;;;;;12.80;7.35;;;17.90;99.90;;;;;;5094522;28;20093;-89
2021/09/12 00:37:39;;;;;;;13.88;7.50;;;17.90;99.90;;;;;;5093021;28;20023;-89
2021/09/12 00:40:07;;;;;;;12.15;6.95;;;17.80;99.90;;;;;;5091597;28;20507;-90
2021/09/12 00:42:33;;;;;;;14.95;8.73;;;17.80;99.90;;;;;;5092682;28;20032;-89
2021/09/12 00:44:59;;;;;;;13.52;8.60;;;17.80;99.90;;;;;;5091601;28;20024;-89
2021/09/12 00:47:25;;;;;;;16.05;8.25;;;17.80;99.90;;;;;;5091733;28;20126;-88
2021/09/12 00:49:51;;;;;;;11.52;7.28;;;17.80;99.90;;;;;;5091843;28;20047;-89
2021/09/12 00:52:20;;;;;;;13.13;8.10;;;17.80;99.90;;;;;;5092148;28;20091;-89
2021/09/12 00:54:49;;;;;;;11.05;7.78;;;17.70;99.90;;;;;;5092418;28;20374;-89
2021/09/12 00:57:15;;;;;;;15.43;7.93;;;17.70;99.90;;;;;;5093116;28;20024;-89
2021/09/12 00:59:45;;;;;;;15.55;8.88;;;17.80;99.90;;;;;;5092807;28;20069;-89
2021/09/12 01:02:12;;;;;;;11.60;7.88;;;17.70;99.90;;;;;;5093354;28;20031;-89
2021/09/12 01:04:39;;;;;;;16.33;9.60;;;17.70;99.90;;;;;;5092633;28;20202;-89
2021/09/12 01:07:07;;;;;;;13.27;9.00;;;17.70;99.90;;;;;;5096511;28;20024;-89
2021/09/12 01:09:39;;;;;;;11.85;8.23;;;17.70;99.90;;;;;;5096314;28;20375;-90
2021/09/12 01:12:07;;;;;;;13.50;8.43;;;17.70;99.90;;;;;;5096193;28;20118;-88
2021/09/12 01:14:35;;;;;;;12.10;8.48;;;17.70;99.90;;;;;;5096078;28;20021;-89
2021/09/12 01:17:02;;;;;;;13.73;8.20;;;17.70;99.90;;;;;;5078251;28;20028;-88
2021/09/12 01:19:30;;;;;;;11.15;8.35;;;17.60;99.90;;;;;;5095690;28;20070;-89
2021/09/12 01:22:02;;;;;;;15.30;9.40;;;17.60;99.90;;;;;;5095918;28;20036;-88
2021/09/12 01:24:29;;;;;;;14.77;9.95;;;17.60;99.90;;;;;;5095352;28;20021;-88
2021/09/12 01:26:56;;;;;;;13.85;9.02;;;17.60;99.90;;;;;;5096020;28;20388;-88
2021/09/12 01:29:22;;;;;;;13.95;9.50;;;17.50;99.90;;;;;;5095208;28;20097;-89
2021/09/12 01:31:48;;;;;;;13.10;9.65;;;17.50;99.90;;;;;;5095132;28;20020;-88
2021/09/12 01:34:14;;;;;;;13.25;9.85;;;17.50;99.90;;;;;;5095119;28;20028;-89
2021/09/12 01:36:41;;;;;;;13.55;8.85;;;17.50;99.90;;;;;;5095092;28;20027;-88
2021/09/12 01:39:08;;;;;;;13.93;9.48;;;17.50;99.90;;;;;;5094525;28;20126;-89
2021/09/12 01:41:34;;;;;;;16.08;10.00;;;17.40;99.90;;;;;;5094421;28;20027;-88
2021/09/12 01:44:03;;;;;;;14.27;10.15;;;17.40;99.90;;;;;;5093958;28;20123;-89
2021/09/12 01:46:29;;;;;;;12.98;9.63;;;17.30;99.90;;;;;;5094839;28;20020;-89
2021/09/12 01:48:57;;;;;;;15.63;10.70;;;17.30;99.90;;;;;;5094640;28;20077;-88
2021/09/12 01:51:24;;;;;;;16.63;9.73;;;17.30;99.90;;;;;;5096229;28;20360;-89
2021/09/12 01:53:50;;;;;;;13.50;9.00;;;17.20;99.90;;;;;;5094426;28;20028;-88
2021/09/12 01:56:17;;;;;;;13.70;10.05;;;17.20;99.90;;;;;;5095891;28;20032;-89
2021/09/12 01:58:43;;;;;;;18.48;11.45;;;17.10;99.90;;;;;;5095212;28;20024;-88
2021/09/12 02:01:09;;;;;;;14.73;9.75;;;17.10;99.90;;;;;;5095155;28;20016;-88
2021/09/12 02:03:35;;;;;;;13.10;9.93;;;17.00;99.90;;;;;;5095244;28;20407;-88
2021/09/12 02:06:02;;;;;;;11.32;8.70;;;17.00;99.90;;;;;;5095293;28;20016;-87
2021/09/12 02:08:27;;;;;;;15.55;9.73;;;16.90;99.90;;;;;;5098577;28;20020;-87
2021/09/12 02:10:54;;;;;;;12.20;8.50;;;16.90;99.90;;;;;;5096120;28;20028;-88
2021/09/12 02:13:20;;;;;;;12.15;8.90;;;16.90;99.90;;;;;;5077627;28;20039;-89
2021/09/12 02:15:46;;;;;;;11.68;7.40;;;16.80;99.90;;;;;;5073657;28;20028;-88
2021/09/12 02:18:13;;;;;;;14.13;9.02;;;16.80;99.90;;;;;;5088287;28;20032;-88
2021/09/12 02:20:40;;;;;;;12.70;8.65;;;16.70;99.90;;;;;;5094398;28;20440;-88
2021/09/12 02:23:07;;;;;;;12.23;8.48;;;16.70;99.90;;;;;;5078827;28;20016;-89
2021/09/12 02:25:36;;;;;;;11.10;7.28;;;16.60;99.90;;;;;;5093520;28;20035;-88
2021/09/12 02:28:03;;;;;;;11.73;7.50;;;16.60;99.90;;;;;;5093767;28;20556;-89
2021/09/12 02:30:29;;;;;;;11.82;6.97;;;16.50;99.90;;;;;;5094026;28;20028;-88
2021/09/12 02:32:56;;;;;;;11.40;7.30;;;16.50;99.90;;;;;;5094602;28;20036;-89
2021/09/12 02:35:22;;;;;;;13.25;6.78;;;16.40;99.90;;;;;;5094134;28;20089;-88
2021/09/12 02:37:48;;;;;;;10.27;6.75;;;16.40;99.90;;;;;;5093741;28;20050;-88
2021/09/12 02:40:14;;;;;;;9.13;5.70;;;16.40;99.90;;;;;;5093670;28;20032;-89
2021/09/12 02:42:40;;;;;;;10.88;6.40;;;16.40;99.90;;;;;;5093734;28;20024;-88
2021/09/12 02:45:10;;;;;;;7.20;5.35;;;16.30;99.90;;;;;;5093732;28;20016;-89
2021/09/12 02:47:37;;;;;;;8.63;5.18;;;16.30;99.90;;;;;;5093481;28;20020;-89
2021/09/12 02:50:05;;;;;;;9.05;6.10;;;16.30;99.90;;;;;;5093689;28;20027;-89
2021/09/12 02:52:31;;;;;;;7.50;5.20;;;16.30;99.90;;;;;;5093203;28;20028;-89
2021/09/12 02:54:57;;;;;;;11.35;6.18;;;16.20;99.90;;;;;;5093322;28;20030;-89
2021/09/12 02:57:24;;;;;;;12.35;6.72;;;16.20;99.90;;;;;;5076383;28;20174;-89
2021/09/12 02:59:51;;;;;;;9.40;5.70;;;16.10;99.90;;;;;;5072929;28;20534;-89
2021/09/12 03:02:17;;;;;;;8.43;5.60;;;16.00;99.90;;;;;;5073294;28;20047;-88
2021/09/12 03:04:43;;;;;;;9.32;5.78;;;16.00;99.90;;;;;;5073354;28;20040;-88
2021/09/12 03:07:09;;;;;;;7.65;5.75;;;16.00;99.90;;;;;;5093337;28;20044;-89
2021/09/12 03:09:35;;;;;;;10.02;6.03;;;15.90;99.90;;;;;;5093221;28;20028;-89
2021/09/12 03:12:01;;;;;;;10.88;6.18;;;15.90;99.90;;;;;;5093025;28;20361;-88
2021/09/12 03:14:27;;;;;;;10.02;5.70;;;15.80;99.90;;;;;;5092290;28;20119;-89
2021/09/12 03:16:53;;;;;;;6.90;5.40;;;15.80;99.90;;;;;;5092804;28;20020;-88
2021/09/12 03:19:19;;;;;;;7.93;5.50;;;15.70;99.90;;;;;;5093032;28;20024;-88
2021/09/12 03:21:46;;;;;;;7.82;5.95;;;15.70;99.90;;;;;;5092822;28;20024;-88
2021/09/12 03:24:12;;;;;;;9.40;6.20;;;15.60;99.90;;;;;;5093273;28;20044;-89
2021/09/12 03:26:38;;;;;;;10.18;7.00;;;15.60;99.90;;;;;;5094731;28;20145;-89
2021/09/12 03:29:04;;;;;;;10.02;6.75;;;15.60;99.90;;;;;;5093087;28;20023;-89
2021/09/12 03:31:30;;;;;;;11.30;8.18;;;15.60;99.90;;;;;;5093412;28;20089;-88
2021/09/12 03:33:59;;;;;;;11.75;8.27;;;15.50;99.90;;;;;;5093215;28;20467;-88
2021/09/12 03:36:25;;;;;;;13.23;8.68;;;15.50;99.90;;;;;;5093054;28;20031;-88
2021/09/12 03:38:52;;;;;;;13.75;8.52;;;15.40;99.90;;;;;;5094532;28;20024;-88
2021/09/12 03:41:19;;;;;;;10.35;8.23;;;15.40;99.90;;;;;;5094394;28;20028;-88
2021/09/12 03:43:46;;;;;;;12.23;7.93;;;15.40;99.90;;;;;;5092475;28;20043;-88
2021/09/12 03:46:12;;;;;;;13.50;8.82;;;15.30;99.90;;;;;;5092485;28;20036;-88
2021/09/12 03:48:38;;;;;;;11.73;7.80;;;15.30;99.90;;;;;;5093121;28;20028;-88
2021/09/12 03:51:04;;;;;;;14.73;8.77;;;15.30;99.90;;;;;;5094817;28;20016;-88
2021/09/12 03:53:32;;;;;;;10.50;7.72;;;15.20;99.90;;;;;;5094408;28;20051;-88
2021/09/12 03:55:58;;;;;;;11.18;8.00;;;15.20;99.90;;;;;;5091849;28;20036;-89
2021/09/12 03:58:25;;;;;;;12.07;7.80;;;15.20;99.90;;;;;;5094084;28;20486;-88
2021/09/12 04:00:51;;;;;;;14.40;8.38;;;15.20;99.90;;;;;;5094512;28;20034;-87
2021/09/12 04:03:17;;;;;;;12.15;7.93;;;15.10;99.90;;;;;;5094090;28;20048;-88
2021/09/12 04:05:44;;;;;;;11.15;8.55;;;15.10;99.90;;;;;;5094819;28;20430;-88
2021/09/12 04:08:10;;;;;;;11.52;8.50;;;15.10;99.90;;;;;;5083307;28;20032;-89
2021/09/12 04:10:37;;;;;;;16.75;9.40;;;15.00;99.90;;;;;;5099604;28;20435;-87
2021/09/12 04:13:03;;;;;;;14.18;10.00;;;15.00;99.90;;;;;;5102992;28;20020;-88
2021/09/12 04:15:29;;;;;;;11.02;8.60;;;15.00;99.90;;;;;;5103568;28;20447;-87
2021/09/12 04:17:55;;;;;;;12.75;8.40;;;14.90;99.90;;;;;;5095119;28;20051;-88
2021/09/12 04:20:21;;;;;;;10.98;6.80;;;14.90;99.90;;;;;;5095123;28;20043;-87
2021/09/12 04:22:47;;;;;;;11.55;7.07;;;14.80;99.90;;;;;;5094918;28;20024;-88
2021/09/12 04:25:13;;;;;;;9.27;7.30;;;14.80;99.90;;;;;;5093790;28;20032;-88
2021/09/12 04:27:39;;;;;;;12.10;6.78;;;14.80;99.90;;;;;;5094283;28;20091;-88
2021/09/12 04:30:08;;;;;;;11.23;7.07;;;14.70;99.90;;;;;;5092143;28;20024;-88
2021/09/12 04:32:34;;;;;;;10.38;7.40;;;14.70;99.90;;;;;;5092799;28;20123;-87
2021/09/12 04:35:00;;;;;;;11.13;7.50;;;14.70;99.90;;;;;;5057731;28;20024;-89
2021/09/12 04:37:26;;;;;;;10.90;6.85;;;14.70;99.90;;;;;;5093352;28;20035;-87
2021/09/12 04:39:52;;;;;;;11.38;7.63;;;14.60;99.90;;;;;;5093953;28;20383;-88
2021/09/12 04:42:18;;;;;;;11.60;7.35;;;14.60;99.90;;;;;;5095966;28;20035;-88
2021/09/12 04:44:44;;;;;;;11.45;7.28;;;14.60;99.90;;;;;;5096911;28;20028;-88
2021/09/12 04:47:10;;;;;;;11.00;7.43;;;14.60;99.90;;;;;;5095755;28;20107;-88
2021/09/12 04:49:36;;;;;;;10.25;7.43;;;14.60;99.90;;;;;;5095100;28;20092;-88
2021/09/12 04:52:02;;;;;;;13.70;7.22;;;14.60;99.90;;;;;;5095776;28;20476;-88
2021/09/12 04:54:28;;;;;;;13.82;8.55;;;14.60;99.90;;;;;;5096266;28;20463;-87
2021/09/12 04:56:54;;;;;;;14.48;8.43;;;14.50;99.90;;;;;;5097240;28;20070;-88
2021/09/12 04:59:20;;;;;;;15.68;9.55;;;14.50;99.90;;;;;;5096702;28;20024;-88
2021/09/12 05:01:48;;;;;;;19.08;10.77;;;14.50;99.90;;;;;;5096441;28;20027;-89
2021/09/12 05:04:14;;;;;;;15.75;10.80;;;14.50;99.90;;;;;;5095956;28;20079;-88
2021/09/12 05:06:41;;;;;;;14.98;11.00;;;14.40;99.90;;;;;;5075663;28;20464;-88
2021/09/12 05:09:07;;;;;;;14.70;10.38;;;14.40;99.90;;;;;;5095685;28;20020;-89
2021/09/12 05:11:33;;;;;;;12.77;9.65;;;14.40;99.90;;;;;;5094944;28;20114;-89
2021/09/12 05:13:59;;;;;;;12.63;9.20;;;14.30;99.90;;;;;;5097320;28;20028;-89
2021/09/12 05:16:25;;;;;;;12.80;9.38;;;14.30;99.90;;;;;;5096634;28;20131;-89
2021/09/12 05:18:51;;;;;;;12.50;9.45;;;14.30;99.90;;;;;;5095841;28;20468;-89
2021/09/12 05:21:18;;;;;;;11.77;8.55;;;14.30;99.90;;;;;;5095421;28;20020;-89
2021/09/12 05:23:44;;;;;;;13.73;8.82;;;14.30;99.90;;;;;;5094952;28;20088;-89
2021/09/12 05:26:10;;;;;;;11.82;8.25;;;14.20;99.90;;;;;;5094860;28;20436;-89
2021/09/12 05:28:36;;;;;;;12.00;8.98;;;14.20;99.90;;;;;;5096782;28;20023;-89
2021/09/12 05:31:03;;;;;;;12.40;8.43;;;14.20;99.90;;;;;;5095361;28;20046;-89
2021/09/12 05:33:32;;;;;;;14.60;9.38;;;14.20;99.90;;;;;;5095270;28;20500;-89
2021/09/12 05:35:58;;;;;;;12.45;9.50;;;14.20;99.90;;;;;;5095082;28;20455;-89
2021/09/12 05:38:24;;;;;;;15.15;10.85;;;14.20;99.90;;;;;;5095017;28;20107;-89
2021/09/12 05:40:50;;;;;;;13.73;9.93;;;14.20;99.90;;;;;;5094956;28;20050;-89
2021/09/12 05:43:16;;;;;;;12.02;9.20;;;14.20;99.90;;;;;;5095242;28;20039;-89
2021/09/12 05:45:42;;;;;;;13.23;9.90;;;14.20;99.90;;;;;;5096192;28;20035;-89
2021/09/12 05:48:08;;;;;;;13.70;9.90;;;14.20;99.90;;;;;;5095385;28;20355;-89
2021/09/12 05:50:34;;;;;;;13.95;9.65;;;14.20;99.90;;;;;;5097712;28;20024;-89
2021/09/12 05:53:06;;;;;;;14.15;10.52;;;14.20;99.90;;;;;;5095034;28;20020;-89
2021/09/12 05:55:37;;;;;;;13.15;10.40;;;14.20;99.90;;;;;;5096106;28;20061;-89
2021/09/12 05:58:04;;;;;;;14.52;11.27;;;14.20;99.90;;;;;;5093870;28;20097;-89
2021/09/12 06:00:31;;;;;;;16.60;11.80;;;14.20;99.90;;;;;;5095129;28;20016;-89
2021/09/12 06:02:58;;;;;;;15.93;11.70;;;14.20;99.90;;;;;;5094443;28;20071;-90
2021/09/12 06:05:24;;;;;;;19.13;12.55;;;14.30;99.90;;;;;;5094365;28;20407;-90
2021/09/12 06:07:50;;;;;;;16.42;12.15;;;14.30;99.90;;;;;;5094655;28;20042;-90
2021/09/12 06:10:16;;;;;;;17.08;13.00;;;14.20;99.90;;;;;;5095636;28;20077;-90
2021/09/12 06:12:42;;;;;;;16.45;11.82;;;14.30;99.90;;;;;;5093858;28;20150;-90
2021/09/12 06:15:09;;;;;;;17.08;11.45;;;14.30;99.90;;;;;;5095800;28;20477;-90
2021/09/12 06:17:35;;;;;;;15.70;11.30;;;14.30;99.90;;;;;;5094451;28;20468;-89
2021/09/12 06:20:01;;;;;;;15.43;11.40;;;14.30;99.90;;;;;;5094525;28;20016;-89
2021/09/12 06:22:27;;;;;;;17.55;12.15;;;14.40;99.90;;;;;;5094292;28;20119;-89
2021/09/12 06:24:53;;;;;;;18.17;12.00;;;14.40;99.90;;;;;;5094082;28;20487;-89
2021/09/12 06:27:20;;;;;;;19.70;14.02;;;14.40;99.90;;;;;;5094012;28;20016;-89
2021/09/12 06:29:46;;;;;;;19.60;13.35;;;14.40;99.90;;;;;;5093830;28;20016;-90
2021/09/12 06:32:13;;;;;;;19.80;13.35;;;14.50;99.90;;;;;;5095296;28;20042;-90
2021/09/12 06:34:39;;;;;;;17.70;13.30;;;14.50;99.90;;;;;;5093878;28;20020;-89
2021/09/12 06:37:06;;;;;;;20.90;14.18;;;14.60;99.90;;;;;;5093765;28;20020;-89
2021/09/12 06:39:32;;;;;;;18.95;13.40;;;14.60;99.90;;;;;;5093343;28;20505;-88
2021/09/12 06:41:58;;;;;;;19.80;14.20;;;14.70;99.90;;;;;;5093544;28;20067;-89
2021/09/12 06:44:24;;;;;;;20.92;13.43;;;14.80;99.90;;;;;;5094258;28;20052;-89
2021/09/12 06:46:51;;;;;;;20.58;14.27;;;14.80;99.90;;;;;;5094480;28;20028;-89
2021/09/12 06:49:18;;;;;;;17.40;12.48;;;14.90;99.90;;;;;;5094778;28;20095;-88
2021/09/12 06:51:44;;;;;;;19.90;13.70;;;15.00;99.90;;;;;;5094733;28;20020;-89
2021/09/12 06:54:10;;;;;;;23.33;13.98;;;15.00;99.90;;;;;;5093914;28;20082;-88
2021/09/12 06:56:36;;;;;;;16.17;12.30;;;15.10;99.90;;;;;;5092939;28;20032;-89
2021/09/12 06:59:02;;;;;;;18.98;12.75;;;15.10;99.90;;;;;;5093293;28;20076;-89
2021/09/12 07:01:28;;;;;;;18.55;12.77;;;15.20;99.90;;;;;;5093397;28;20076;-88
2021/09/12 07:03:54;;;;;;;16.98;11.98;;;15.20;99.90;;;;;;5092112;28;20511;-89
2021/09/12 07:06:21;;;;;;;17.42;12.18;;;15.20;99.90;;;;;;5093988;28;20028;-88
2021/09/12 07:08:49;;;;;;;15.50;11.30;;;15.30;99.90;;;;;;5093565;28;20047;-88
2021/09/12 07:11:18;;;;;;;16.73;10.43;;;15.30;99.90;;;;;;5092355;28;20169;-86
2021/09/12 07:13:44;;;;;;;22.13;11.88;;;15.40;99.90;;;;;;5092984;28;20031;-86
2021/09/12 07:16:13;;;;;;;16.92;11.75;;;15.40;99.90;;;;;;5092727;28;20024;-88
2021/09/12 07:18:39;;;;;;;15.25;9.73;;;15.40;99.90;;;;;;5093050;28;20032;-87
2021/09/12 07:21:06;;;;;;;15.80;10.27;;;15.40;99.90;;;;;;5076520;28;20031;-87
2021/09/12 07:23:33;;;;;;;12.50;9.40;;;15.50;99.90;;;;;;5093062;28;20039;-86
2021/09/12 07:26:03;;;;;;;12.20;9.88;;;15.60;99.90;;;;;;5092005;28;20032;-87
2021/09/12 07:28:29;;;;;;;17.20;9.75;;;15.60;99.90;;;;;;5093314;28;20028;-87
2021/09/12 07:30:55;;;;;;;12.77;9.52;;;15.70;99.90;;;;;;5093178;28;20111;-87
2021/09/12 07:33:22;;;;;;;15.60;10.10;;;15.70;99.90;;;;;;5093121;28;20087;-86
2021/09/12 07:35:48;;;;;;;16.23;11.70;;;15.80;99.90;;;;;;5093789;28;20047;-87
2021/09/12 07:38:14;;;;;;;16.15;9.82;;;15.90;99.90;;;;;;5099384;28;20012;-86
2021/09/12 07:40:40;;;;;;;14.40;9.77;;;15.90;99.90;;;;;;5091066;28;20504;-86
2021/09/12 07:43:07;;;;;;;13.68;9.98;;;16.00;99.90;;;;;;5070941;28;20037;-87
2021/09/12 07:45:33;;;;;;;14.82;10.10;;;16.10;99.90;;;;;;5071104;28;20028;-87
2021/09/12 07:48:11;;;;;;;17.02;10.40;;;16.20;99.90;;;;;;5088075;28;20024;-86
2021/09/12 07:50:37;;;;;;;15.38;10.65;;;16.40;99.90;;;;;;5081506;28;20039;-87
2021/09/12 07:53:04;;;;;;;15.95;11.00;;;16.50;99.90;;;;;;5086063;28;20112;-87
2021/09/12 07:55:35;;;;;;;12.90;9.82;;;16.60;99.90;;;;;;5092614;28;20114;-87
2021/09/12 07:58:01;;;;;;;12.52;9.82;;;16.60;99.90;;;;;;5093087;28;20032;-88
2021/09/12 08:00:28;;;;;;;17.98;11.65;;;16.80;99.90;;;;;;5092897;28;20023;-87
2021/09/12 08:02:54;;;;;;;18.48;12.45;;;16.80;99.90;;;;;;5075340;28;20084;-87
2021/09/12 08:05:21;;;;;;;20.90;12.68;;;16.90;99.90;;;;;;5092736;28;20306;-87
2021/09/12 08:07:51;;;;;;;17.17;12.02;;;16.90;99.90;;;;;;5092167;28;20031;-87
2021/09/12 08:10:17;;;;;;;17.30;11.55;;;16.90;99.90;;;;;;5092220;28;20055;-87
2021/09/12 08:12:43;;;;;;;17.58;11.48;;;17.00;99.90;;;;;;5092395;28;20028;-87
2021/09/12 08:15:09;;;;;;;17.17;11.02;;;17.10;99.90;;;;;;5093009;28;20020;-87
2021/09/12 08:17:36;;;;;;;20.10;12.23;;;17.10;99.90;;;;;;5091757;28;20016;-87
2021/09/12 08:20:03;;;;;;;16.73;12.18;;;17.10;99.90;;;;;;5091871;28;20028;-88
2021/09/12 08:22:30;;;;;;;18.23;11.10;;;17.10;99.90;;;;;;5093215;28;20097;-87
2021/09/12 08:24:56;;;;;;;17.13;11.48;;;17.20;99.90;;;;;;5092205;28;20081;-87
2021/09/12 08:27:25;;;;;;;15.00;10.60;;;17.40;99.90;;;;;;5091615;28;20028;-87
2021/09/12 08:29:52;;;;;;;17.48;11.68;;;17.40;99.90;;;;;;5075720;28;20033;-87
2021/09/12 08:32:18;;;;;;;15.60;11.20;;;17.50;99.90;;;;;;5091758;28;20032;-87
2021/09/12 08:34:46;;;;;;;16.30;10.00;;;17.70;99.90;;;;;;5091210;28;20032;-87
2021/09/12 08:37:12;;;;;;;15.40;9.95;;;17.80;99.90;;;;;;5092135;28;20047;-86
2021/09/12 08:39:42;;;;;;;15.48;10.48;;;18.00;99.90;;;;;;5091478;28;20103;-87
2021/09/12 08:42:16;;;;;;;11.85;10.20;;;18.00;99.90;;;;;;5092270;28;20016;-87
2021/09/12 08:44:48;;;;;;;15.77;11.98;;;18.20;99.90;;;;;;5092039;28;20032;-87
2021/09/12 08:47:16;;;;;;;16.73;12.07;;;18.10;99.90;;;;;;5090298;28;20020;-88
2021/09/12 08:49:43;;;;;;;16.35;12.52;;;18.20;99.90;;;;;;5092490;28;20077;-87
2021/09/12 08:52:10;;;;;;;19.23;12.93;;;18.40;99.90;;;;;;5089150;28;20024;-88
2021/09/12 08:54:38;;;;;;;16.92;11.27;;;18.70;99.90;;;;;;5091617;28;20020;-88
2021/09/12 08:57:04;;;;;;;15.43;10.38;;;18.80;99.90;;;;;;5090427;28;20479;-87
2021/09/12 08:59:36;;;;;;;13.98;9.77;;;18.80;99.90;;;;;;5088839;28;20042;-88
2021/09/12 09:02:09;;;;;;;12.55;9.98;;;18.90;99.90;;;;;;5088291;28;20047;-88
2021/09/12 09:04:36;;;;;;;13.20;10.00;;;18.70;99.90;;;;;;5087398;28;20044;-88
2021/09/12 09:07:20;;;;;;;16.85;11.20;;;18.70;99.90;;;;;;5089368;28;20047;-89
2021/09/12 09:09:49;;;;;;;13.55;10.10;;;18.70;99.90;;;;;;5079023;28;20043;-87
2021/09/12 09:12:27;;;;;;;12.18;9.05;;;18.70;99.90;;;;;;5087268;28;20028;-87
2021/09/12 09:15:00;;;;;;;15.43;8.82;;;18.80;99.90;;;;;;5089569;28;20031;-87
2021/09/12 09:17:28;;;;;;;13.68;9.40;;;18.90;99.90;;;;;;5089349;28;20142;-87
2021/09/12 09:19:57;;;;;;;13.57;9.70;;;19.10;99.90;;;;;;5087206;28;20024;-87
2021/09/12 09:22:41;;;;;;;13.50;8.73;;;19.20;99.90;;;;;;5090953;28;20033;-89
2021/09/12 09:29:37;;;;;;;12.75;9.23;;;19.50;99.90;;;;;;5052357;27;1665555;-87
2021/09/12 09:32:17;;;;;;;12.57;10.00;;;19.80;99.90;;;;;;5075094;28;20081;-86
2021/09/12 09:34:45;;;;;;;14.45;9.88;;;20.10;99.90;;;;;;5071144;28;20033;-88
2021/09/12 09:37:20;;;;;;;19.13;11.63;;;20.20;99.90;;;;;;5072135;28;20017;-87
2021/09/12 09:39:55;;;;;;;15.48;10.52;;;20.40;99.90;;;;;;5078373;28;20112;-87
2021/09/12 09:42:38;;;;;;;14.20;10.07;;;20.40;99.90;;;;;;5074357;28;20499;-87
2021/09/12 09:45:25;;;;;;;12.93;9.52;;;20.30;99.90;;;;;;5085932;28;20028;-86
2021/09/12 09:47:53;;;;;;;12.30;8.90;;;20.40;99.90;;;;;;5078018;28;20025;-87
2021/09/12 09:50:25;;;;;;;12.68;9.77;;;20.60;99.90;;;;;;5074049;28;20075;-87
2021/09/12 09:52:56;;;;;;;14.52;9.75;;;20.50;99.90;;;;;;5085701;28;20016;-87
2021/09/12 09:55:30;;;;;;;13.90;9.32;;;20.40;99.90;;;;;;5073693;28;20028;-88
2021/09/12 09:57:57;;;;;;;14.68;10.38;;;20.40;99.90;;;;;;5076354;28;20494;-87
2021/09/12 10:00:26;;;;;;;14.60;10.48;;;20.30;99.90;;;;;;5083064;28;20028;-88
2021/09/12 10:02:54;;;;;;;14.80;9.98;;;20.20;99.90;;;;;;5073681;28;20408;-88
2021/09/12 10:05:20;;;;;;;12.50;10.00;;;20.20;99.90;;;;;;5079890;28;20387;-89
2021/09/12 10:07:46;;;;;;;14.32;9.60;;;20.20;99.90;;;;;;5083202;28;20098;-88
2021/09/12 10:10:14;;;;;;;14.75;11.10;;;20.10;99.90;;;;;;5068227;28;20490;-87
2021/09/12 10:13:04;;;;;;;13.75;10.52;;;20.10;99.90;;;;;;5085261;28;20024;-88
2021/09/12 10:15:38;;;;;;;12.82;9.93;;;20.00;99.90;;;;;;5075321;28;20086;-87
2021/09/12 10:18:05;;;;;;;14.85;10.88;;;19.90;99.90;;;;;;5067663;28;20037;-87
2021/09/12 10:20:34;;;;;;;12.27;9.73;;;20.00;99.90;;;;;;5072718;28;20020;-86
2021/09/12 10:23:06;;;;;;;14.95;10.95;;;20.10;99.90;;;;;;5069146;28;20423;-87
2021/09/12 10:25:52;;;;;;;16.67;11.40;;;20.10;99.90;;;;;;5081143;28;20112;-89
2021/09/12 10:28:36;;;;;;;15.23;10.48;;;20.00;99.90;;;;;;5081180;28;20063;-87
2021/09/12 10:31:24;;;;;;;13.63;10.68;;;20.00;99.90;;;;;;5071355;28;20123;-88
2021/09/12 10:34:15;;;;;;;12.00;9.65;;;20.00;99.90;;;;;;5079158;28;20025;-86
2021/09/12 10:36:43;;;;;;;12.85;9.95;;;20.10;99.90;;;;;;5077575;28;20020;-88
2021/09/12 10:39:23;;;;;;;14.38;11.02;;;20.10;99.90;;;;;;5075641;28;20115;-88
2021/09/12 10:42:15;;;;;;;15.38;11.93;;;20.20;99.90;;;;;;5073816;28;20055;-87
2021/09/12 10:44:41;;;;;;;15.68;12.82;;;20.10;99.90;;;;;;5058387;28;20027;-87
2021/09/12 10:47:10;;;;;;;15.23;11.98;;;20.10;99.90;;;;;;5061838;28;20059;-88
2021/09/12 10:49:36;;;;;;;15.23;11.73;;;20.00;99.90;;;;;;5069895;28;20067;-86
2021/09/12 10:52:08;;;;;;;18.42;12.55;;;20.10;99.90;;;;;;5077945;28;20037;-88
2021/09/12 10:55:06;;;;;;;17.75;13.07;;;20.10;99.90;;;;;;5060839;28;20032;-87
2021/09/12 10:57:35;;;;;;;16.38;12.60;;;20.10;99.90;;;;;;5057765;28;20107;-87
2021/09/12 11:00:03;;;;;;;15.27;11.68;;;19.90;99.90;;;;;;5063972;28;20425;-88
2021/09/12 11:02:33;;;;;;;12.38;10.48;;;19.90;99.90;;;;;;5053618;28;20396;-88
2021/09/12 11:05:00;;;;;;;16.52;11.70;;;20.00;99.90;;;;;;5057879;28;20028;-88
2021/09/12 11:07:26;;;;;;;16.45;12.48;;;20.00;99.90;;;;;;5068269;28;20028;-88
2021/09/12 11:09:52;;;;;;;22.25;15.77;;;20.00;99.90;;;;;;5060725;28;20017;-88
2021/09/12 11:12:28;;;;;;;22.70;15.75;;;19.90;99.90;;;;;;5064186;28;20438;-88
2021/09/12 11:14:56;;;;;;;22.13;15.82;;;19.90;99.90;;;;;;5068498;28;20107;-87
2021/09/12 11:17:22;;;;;;;19.80;16.20;;;20.10;99.90;;;;;;5073199;28;20032;-87
2021/09/12 11:19:54;;;;;;;24.55;18.27;;;20.70;99.90;;;;;;5054004;28;20017;-88
2021/09/12 11:22:23;;;;;;;22.50;16.08;;;21.60;99.90;;;;;;5060585;28;20029;-89
2021/09/12 11:25:01;;;;;;;22.10;16.95;;;22.20;99.90;;;;;;5055704;28;20028;-86
2021/09/12 11:27:31;;;;;;;19.13;14.45;;;22.80;99.90;;;;;;5066353;28;20441;-88
2021/09/12 11:30:08;;;;;;;19.35;15.93;;;23.00;99.90;;;;;;5053242;28;20049;-88
2021/09/12 11:32:36;;;;;;;18.88;14.40;;;22.70;99.90;;;;;;5069148;28;20542;-88
2021/09/12 11:35:04;;;;;;;18.05;13.32;;;22.20;99.90;;;;;;5069976;28;20017;-88
2021/09/12 11:37:32;;;;;;;15.27;12.93;;;22.00;99.90;;;;;;5051663;28;20036;-88
2021/09/12 11:40:02;;;;;;;13.85;12.02;;;21.80;99.90;;;;;;5063707;28;20043;-88
2021/09/12 11:42:31;;;;;;;16.25;13.45;;;21.80;99.90;;;;;;5066096;28;20124;-88
2021/09/12 11:45:02;;;;;;;17.38;14.02;;;21.60;99.90;;;;;;5054781;28;20104;-88
2021/09/12 11:47:31;;;;;;;16.13;13.65;;;21.50;99.90;;;;;;5060875;28;20037;-88
2021/09/12 11:50:00;;;;;;;19.00;14.73;;;21.30;99.90;;;;;;5062886;28;20123;-88
2021/09/12 11:52:37;;;;;;;19.88;16.45;;;21.10;99.90;;;;;;5066953;28;20413;-89
2021/09/12 11:55:16;;;;;;;18.17;15.48;;;21.20;99.90;;;;;;5058352;28;20016;-87
2021/09/12 11:57:56;;;;;;;22.52;15.45;;;21.40;99.90;;;;;;5067250;28;20024;-87
2021/09/12 12:00:23;;;;;;;18.83;15.18;;;21.60;99.90;;;;;;5058999;28;20053;-88
2021/09/12 12:02:49;;;;;;;20.70;15.52;;;21.70;99.90;;;;;;5068126;28;20043;-87
2021/09/12 12:05:19;;;;;;;18.85;13.90;;;21.60;99.90;;;;;;5056206;28;20021;-87
2021/09/12 12:07:46;;;;;;;15.68;13.18;;;21.80;99.90;;;;;;5063523;28;20458;-86
2021/09/12 12:10:33;;;;;;;14.63;11.90;;;22.30;99.90;;;;;;5063729;28;20736;-88
2021/09/12 12:12:59;;;;;;;21.50;17.58;;;23.20;99.90;;;;;;5067517;28;20036;-88
2021/09/12 12:15:32;;;;;;;19.00;15.77;;;23.30;99.90;;;;;;5051001;28;20458;-86
2021/09/12 12:17:59;;;;;;;16.98;14.52;;;23.10;99.90;;;;;;5062190;28;20024;-87
2021/09/12 12:20:33;;;;;;;17.40;14.30;;;23.00;99.90;;;;;;5057159;28;20024;-87
2021/09/12 12:23:23;;;;;;;15.80;12.98;;;23.60;99.90;;;;;;5068767;28;20024;-88
2021/09/12 12:25:53;;;;;;;13.90;11.75;;;24.60;99.90;;;;;;5060599;28;20484;-88
2021/09/12 12:28:28;;;;;;;14.32;12.27;;;25.00;99.90;;;;;;5057852;28;20064;-87
2021/09/12 12:31:16;;;;;;;13.73;11.50;;;24.80;99.90;;;;;;5070550;28;20043;-87
2021/09/12 12:33:45;;;;;;;18.35;14.65;;;24.50;99.90;;;;;;5049681;28;20131;-87
2021/09/12 12:36:21;;;;;;;14.65;12.07;;;24.20;99.90;;;;;;5064111;28;20559;-87
2021/09/12 12:38:48;;;;;;;14.23;11.25;;;24.00;99.90;;;;;;5058012;28;20040;-88
2021/09/12 12:41:17;;;;;;;12.90;11.00;;;24.10;99.90;;;;;;5072272;28;20156;-89
2021/09/12 12:43:45;;;;;;;14.30;10.93;;;24.30;99.90;;;;;;5065265;28;20059;-88